sensor_id;sensor_type;location;lat;lon;timestamp;P1;durP1;ratioP1;P2;durP2;ratioP2
14143;SDS011;7152;48.348;10.980;2024-01-06T18:40:10;13.03;;;10.77;;
14143;SDS011;7152;48.348;10.980;2024-01-06T18:42:37;14.33;;;11.17;;
14143;SDS011;7152;48.348;10.980;2024-01-06T18:45:03;13.37;;;11.60;;
14143;SDS011;7152;48.348;10.980;2024-01-06T18:47:29;15.17;;;11.63;;
14143;SDS011;7152;48.348;10.980;2024-01-06T18:49:55;14.33;;;10.53;;
14143;SDS011;7152;48.348;10.980;2024-01-06T18:52:21;16.03;;;12.00;;
14143;SDS011;7152;48.348;10.980;2024-01-06T18:54:47;15.33;;;13.13;;
14143;SDS011;7152;48.348;10.980;2024-01-06T18:57:13;21.60;;;15.23;;
14143;SDS011;7152;48.348;10.980;2024-01-06T18:59:39;16.00;;;13.50;;
14143;SDS011;7152;48.348;10.980;2024-01-06T19:02:06;19.73;;;13.50;;
14143;SDS011;7152;48.348;10.980;2024-01-06T19:04:34;17.90;;;14.33;;
14143;SDS011;7152;48.348;10.980;2024-01-06T19:07:00;19.23;;;15.20;;
14143;SDS011;7152;48.348;10.980;2024-01-06T19:09:26;15.53;;;13.40;;
14143;SDS011;7152;48.348;10.980;2024-01-06T19:11:53;15.00;;;12.40;;
14143;SDS011;7152;48.348;10.980;2024-01-06T19:14:20;15.57;;;11.03;;
14143;SDS011;7152;48.348;10.980;2024-01-06T19:16:46;13.77;;;11.50;;
14143;SDS011;7152;48.348;10.980;2024-01-06T19:19:12;14.30;;;11.90;;
14143;SDS011;7152;48.348;10.980;2024-01-06T19:21:38;16.10;;;12.10;;
14143;SDS011;7152;48.348;10.980;2024-01-06T19:24:03;15.63;;;12.60;;
14143;SDS011;7152;48.348;10.980;2024-01-06T19:26:29;17.07;;;13.47;;
14143;SDS011;7152;48.348;10.980;2024-01-06T19:28:55;15.13;;;12.27;;
14143;SDS011;7152;48.348;10.980;2024-01-06T19:31:21;16.27;;;13.13;;
14143;SDS011;7152;48.348;10.980;2024-01-06T19:33:47;16.83;;;13.17;;
14143;SDS011;7152;48.348;10.980;2024-01-06T19:36:15;13.93;;;12.43;;
14143;SDS011;7152;48.348;10.980;2024-01-06T19:38:42;15.90;;;12.80;;
14143;SDS011;7152;48.348;10.980;2024-01-06T19:41:08;15.20;;;13.37;;
14143;SDS011;7152;48.348;10.980;2024-01-06T19:43:33;15.27;;;12.57;;
14143;SDS011;7152;48.348;10.980;2024-01-06T19:46:00;21.37;;;16.20;;
14143;SDS011;7152;48.348;10.980;2024-01-06T19:48:27;21.10;;;15.03;;
14143;SDS011;7152;48.348;10.980;2024-01-06T19:50:53;17.43;;;15.40;;
14143;SDS011;7152;48.348;10.980;2024-01-06T19:53:19;17.47;;;12.77;;
14143;SDS011;7152;48.348;10.980;2024-01-06T19:55:44;15.87;;;14.13;;
14143;SDS011;7152;48.348;10.980;2024-01-06T19:58:11;15.73;;;13.20;;
14143;SDS011;7152;48.348;10.980;2024-01-06T20:00:37;16.57;;;13.53;;
14143;SDS011;7152;48.348;10.980;2024-01-06T20:03:03;14.93;;;11.70;;
14143;SDS011;7152;48.348;10.980;2024-01-06T20:05:29;13.40;;;11.33;;
14143;SDS011;7152;48.348;10.980;2024-01-06T20:07:55;12.07;;;10.87;;
14143;SDS011;7152;48.348;10.980;2024-01-06T20:10:21;13.53;;;11.50;;
14143;SDS011;7152;48.348;10.980;2024-01-06T20:12:47;13.43;;;11.90;;
14143;SDS011;7152;48.348;10.980;2024-01-06T20:15:13;12.70;;;11.20;;
14143;SDS011;7152;48.348;10.980;2024-01-06T20:17:38;13.43;;;11.20;;
14143;SDS011;7152;48.348;10.980;2024-01-06T20:20:04;13.30;;;11.57;;
14143;SDS011;7152;48.348;10.980;2024-01-06T20:22:33;13.63;;;11.53;;
14143;SDS011;7152;48.348;10.980;2024-01-06T20:24:59;15.17;;;11.93;;
14143;SDS011;7152;48.348;10.980;2024-01-06T20:27:26;15.33;;;12.50;;
14143;SDS011;7152;48.348;10.980;2024-01-06T20:29:52;14.40;;;11.70;;
14143;SDS011;7152;48.348;10.980;2024-01-06T20:32:19;16.37;;;13.70;;
14143;SDS011;7152;48.348;10.980;2024-01-06T20:34:45;14.93;;;13.27;;
14143;SDS011;7152;48.348;10.980;2024-01-06T20:37:11;14.50;;;12.90;;
14143;SDS011;7152;48.348;10.980;2024-01-06T20:39:37;15.37;;;12.73;;
14143;SDS011;7152;48.348;10.980;2024-01-06T20:42:03;16.20;;;13.53;;
14143;SDS011;7152;48.348;10.980;2024-01-06T20:44:33;14.67;;;13.03;;
14143;SDS011;7152;48.348;10.980;2024-01-06T20:47:00;15.37;;;13.00;;
14143;SDS011;7152;48.348;10.980;2024-01-06T20:49:26;13.93;;;12.40;;
14143;SDS011;7152;48.348;10.980;2024-01-06T20:51:52;13.43;;;11.23;;
14143;SDS011;7152;48.348;10.980;2024-01-06T20:54:18;13.10;;;11.73;;
14143;SDS011;7152;48.348;10.980;2024-01-06T20:56:44;14.43;;;11.60;;
14143;SDS011;7152;48.348;10.980;2024-01-06T20:59:10;14.77;;;12.37;;
14143;SDS011;7152;48.348;10.980;2024-01-06T21:01:35;14.27;;;11.33;;
14143;SDS011;7152;48.348;10.980;2024-01-06T21:04:01;13.33;;;11.93;;
14143;SDS011;7152;48.348;10.980;2024-01-06T21:06:27;15.37;;;12.17;;
14143;SDS011;7152;48.348;10.980;2024-01-06T21:08:53;13.73;;;12.27;;
14143;SDS011;7152;48.348;10.980;2024-01-06T21:11:19;13.93;;;11.77;;
14143;SDS011;7152;48.348;10.980;2024-01-06T21:13:45;13.73;;;12.30;;
14143;SDS011;7152;48.348;10.980;2024-01-06T21:16:11;14.27;;;11.40;;
14143;SDS011;7152;48.348;10.980;2024-01-06T21:18:38;12.40;;;11.10;;
14143;SDS011;7152;48.348;10.980;2024-01-06T21:21:04;15.70;;;11.40;;
14143;SDS011;7152;48.348;10.980;2024-01-06T21:23:30;13.43;;;11.87;;
14143;SDS011;7152;48.348;10.980;2024-01-06T21:25:56;12.97;;;11.27;;
14143;SDS011;7152;48.348;10.980;2024-01-06T21:28:22;14.23;;;12.10;;
14143;SDS011;7152;48.348;10.980;2024-01-06T21:30:48;14.93;;;11.33;;
14143;SDS011;7152;48.348;10.980;2024-01-06T21:33:15;13.07;;;10.90;;
14143;SDS011;7152;48.348;10.980;2024-01-06T21:35:42;13.43;;;11.50;;
14143;SDS011;7152;48.348;10.980;2024-01-06T21:38:08;13.97;;;11.93;;
14143;SDS011;7152;48.348;10.980;2024-01-06T21:40:38;14.30;;;12.90;;
14143;SDS011;7152;48.348;10.980;2024-01-06T21:43:04;13.70;;;11.43;;
14143;SDS011;7152;48.348;10.980;2024-01-06T21:45:33;14.10;;;12.47;;
14143;SDS011;7152;48.348;10.980;2024-01-06T21:47:59;14.00;;;12.50;;
14143;SDS011;7152;48.348;10.980;2024-01-06T21:50:25;16.33;;;12.40;;
14143;SDS011;7152;48.348;10.980;2024-01-06T21:52:51;15.07;;;11.67;;
14143;SDS011;7152;48.348;10.980;2024-01-06T21:55:17;15.63;;;11.63;;
14143;SDS011;7152;48.348;10.980;2024-01-06T21:57:43;13.73;;;11.83;;
14143;SDS011;7152;48.348;10.980;2024-01-06T22:00:09;16.37;;;13.60;;
14143;SDS011;7152;48.348;10.980;2024-01-06T22:02:41;16.73;;;12.10;;
14143;SDS011;7152;48.348;10.980;2024-01-06T22:05:07;14.50;;;12.53;;
14143;SDS011;7152;48.348;10.980;2024-01-06T22:07:33;15.70;;;13.50;;
14143;SDS011;7152;48.348;10.980;2024-01-06T22:09:59;15.17;;;12.80;;
14143;SDS011;7152;48.348;10.980;2024-01-06T22:12:25;20.80;;;15.07;;
14143;SDS011;7152;48.348;10.980;2024-01-06T22:14:51;18.97;;;14.13;;
14143;SDS011;7152;48.348;10.980;2024-01-06T22:17:17;20.30;;;14.93;;
14143;SDS011;7152;48.348;10.980;2024-01-06T22:19:43;18.10;;;14.27;;
14143;SDS011;7152;48.348;10.980;2024-01-06T22:22:09;22.40;;;17.67;;
14143;SDS011;7152;48.348;10.980;2024-01-06T22:24:35;22.83;;;17.07;;
14143;SDS011;7152;48.348;10.980;2024-01-06T22:27:01;21.73;;;16.80;;
14143;SDS011;7152;48.348;10.980;2024-01-06T22:29:27;24.90;;;18.60;;
14143;SDS011;7152;48.348;10.980;2024-01-06T22:31:52;20.17;;;17.30;;
14143;SDS011;7152;48.348;10.980;2024-01-06T22:34:18;21.57;;;17.87;;
14143;SDS011;7152;48.348;10.980;2024-01-06T22:36:47;22.20;;;17.60;;
14143;SDS011;7152;48.348;10.980;2024-01-06T22:39:13;22.60;;;16.90;;
14143;SDS011;7152;48.348;10.980;2024-01-06T22:41:40;19.43;;;15.60;;
14143;SDS011;7152;48.348;10.980;2024-01-06T22:44:11;18.43;;;15.63;;
14143;SDS011;7152;48.348;10.980;2024-01-06T22:46:37;17.43;;;15.10;;
14143;SDS011;7152;48.348;10.980;2024-01-06T22:49:03;19.00;;;15.30;;
14143;SDS011;7152;48.348;10.980;2024-01-06T22:51:28;20.67;;;15.87;;
14143;SDS011;7152;48.348;10.980;2024-01-06T22:53:54;22.57;;;16.53;;
14143;SDS011;7152;48.348;10.980;2024-01-06T22:56:20;18.27;;;15.97;;
14143;SDS011;7152;48.348;10.980;2024-01-06T22:58:46;17.50;;;13.63;;
14143;SDS011;7152;48.348;10.980;2024-01-06T23:01:12;20.30;;;14.23;;
14143;SDS011;7152;48.348;10.980;2024-01-06T23:03:38;18.33;;;14.83;;
14143;SDS011;7152;48.348;10.980;2024-01-06T23:06:04;18.87;;;15.93;;
14143;SDS011;7152;48.348;10.980;2024-01-06T23:08:34;18.43;;;14.70;;
14143;SDS011;7152;48.348;10.980;2024-01-06T23:11:00;20.97;;;16.67;;
14143;SDS011;7152;48.348;10.980;2024-01-06T23:13:28;21.73;;;16.40;;
14143;SDS011;7152;48.348;10.980;2024-01-06T23:15:54;19.13;;;15.50;;
14143;SDS011;7152;48.348;10.980;2024-01-06T23:18:21;21.27;;;16.10;;
14143;SDS011;7152;48.348;10.980;2024-01-06T23:20:48;18.07;;;16.07;;
14143;SDS011;7152;48.348;10.980;2024-01-06T23:23:14;18.80;;;15.53;;
14143;SDS011;7152;48.348;10.980;2024-01-06T23:25:40;18.03;;;15.93;;
14143;SDS011;7152;48.348;10.980;2024-01-06T23:28:06;18.63;;;14.10;;
14143;SDS011;7152;48.348;10.980;2024-01-06T23:30:32;17.70;;;15.03;;
14143;SDS011;7152;48.348;10.980;2024-01-06T23:32:58;19.40;;;14.93;;
14143;SDS011;7152;48.348;10.980;2024-01-06T23:35:24;19.53;;;15.47;;
14143;SDS011;7152;48.348;10.980;2024-01-06T23:37:49;17.83;;;14.70;;
14143;SDS011;7152;48.348;10.980;2024-01-06T23:40:15;20.43;;;15.53;;
14143;SDS011;7152;48.348;10.980;2024-01-06T23:42:43;21.13;;;15.77;;
